sensor_id;sensor_type;location;lat;lon;timestamp;pressure;altitude;pressure_sealevel;temperature;humidity
18918;BME280;9591;52.742;13.650;2023-02-20T00:01:56;101636.72;;;5.10;100.00
18918;BME280;9591;52.742;13.650;2023-02-20T00:04:45;101627.03;;;4.97;100.00
18918;BME280;9591;52.742;13.650;2023-02-20T00:07:32;101633.13;;;4.94;100.00
18918;BME280;9591;52.742;13.650;2023-02-20T00:10:21;101612.13;;;4.96;100.00
18918;BME280;9591;52.742;13.650;2023-02-20T00:13:10;101614.81;;;5.05;100.00
18918;BME280;9591;52.742;13.650;2023-02-20T00:15:56;101613.94;;;5.06;100.00
18918;BME280;9591;52.742;13.650;2023-02-20T00:18:43;101601.56;;;4.81;100.00
18918;BME280;9591;52.742;13.650;2023-02-20T00:21:31;101609.44;;;4.84;100.00
18918;BME280;9591;52.742;13.650;2023-02-20T00:24:18;101601.59;;;4.88;100.00
18918;BME280;9591;52.742;13.650;2023-02-20T00:27:05;101588.44;;;4.84;100.00
18918;BME280;9591;52.742;13.650;2023-02-20T00:29:53;101592.84;;;4.89;100.00
18918;BME280;9591;52.742;13.650;2023-02-20T00:32:40;101584.09;;;4.87;100.00
18918;BME280;9591;52.742;13.650;2023-02-20T00:35:27;101586.72;;;4.87;100.00
18918;BME280;9591;52.742;13.650;2023-02-20T00:38:14;101591.06;;;4.85;100.00
18918;BME280;9591;52.742;13.650;2023-02-20T00:41:01;101592.84;;;4.88;100.00
18918;BME280;9591;52.742;13.650;2023-02-20T00:43:48;101579.72;;;4.88;100.00
18918;BME280;9591;52.742;13.650;2023-02-20T00:46:36;101580.59;;;4.85;100.00
18918;BME280;9591;52.742;13.650;2023-02-20T00:49:23;101575.34;;;4.87;100.00
18918;BME280;9591;52.742;13.650;2023-02-20T00:52:10;101562.22;;;4.87;100.00
18918;BME280;9591;52.742;13.650;2023-02-20T00:54:59;101560.47;;;4.87;100.00
18918;BME280;9591;52.742;13.650;2023-02-20T00:57:46;101560.44;;;4.84;100.00
18918;BME280;9591;52.742;13.650;2023-02-20T01:00:32;101554.38;;;4.93;100.00
18918;BME280;9591;52.742;13.650;2023-02-20T01:03:21;101557.91;;;5.04;100.00
18918;BME280;9591;52.742;13.650;2023-02-20T01:06:08;101557.00;;;4.93;100.00
18918;BME280;9591;52.742;13.650;2023-02-20T01:08:54;101549.13;;;4.94;100.00
18918;BME280;9591;52.742;13.650;2023-02-20T01:11:42;101546.56;;;5.17;100.00
18918;BME280;9591;52.742;13.650;2023-02-20T01:14:29;101547.41;;;5.09;100.00
18918;BME280;9591;52.742;13.650;2023-02-20T01:17:19;101553.56;;;5.23;100.00
18918;BME280;9591;52.742;13.650;2023-02-20T01:20:08;101544.81;;;5.16;100.00
18918;BME280;9591;52.742;13.650;2023-02-20T01:22:55;101540.44;;;5.24;100.00
18918;BME280;9591;52.742;13.650;2023-02-20T01:25:42;101530.81;;;5.34;100.00
18918;BME280;9591;52.742;13.650;2023-02-20T01:28:28;101518.56;;;5.35;100.00
18918;BME280;9591;52.742;13.650;2023-02-20T01:31:15;101517.69;;;5.39;100.00
18918;BME280;9591;52.742;13.650;2023-02-20T01:34:03;101505.41;;;5.22;100.00
18918;BME280;9591;52.742;13.650;2023-02-20T01:36:53;101502.81;;;5.50;100.00
18918;BME280;9591;52.742;13.650;2023-02-20T01:39:45;101514.19;;;5.43;100.00
18918;BME280;9591;52.742;13.650;2023-02-20T01:42:33;101498.44;;;5.67;100.00
18918;BME280;9591;52.742;13.650;2023-02-20T01:45:31;101480.06;;;5.63;100.00
18918;BME280;9591;52.742;13.650;2023-02-20T01:48:20;101473.91;;;5.62;100.00
18918;BME280;9591;52.742;13.650;2023-02-20T01:51:07;101471.28;;;5.56;100.00
18918;BME280;9591;52.742;13.650;2023-02-20T01:53:56;101459.03;;;5.70;100.00
18918;BME280;9591;52.742;13.650;2023-02-20T01:56:45;101455.53;;;5.50;100.00
18918;BME280;9591;52.742;13.650;2023-02-20T01:59:36;101449.38;;;5.60;100.00
18918;BME280;9591;52.742;13.650;2023-02-20T02:02:24;101452.91;;;5.54;100.00
18918;BME280;9591;52.742;13.650;2023-02-20T02:05:13;101450.25;;;5.71;100.00
18918;BME280;9591;52.742;13.650;2023-02-20T02:08:03;101455.53;;;5.67;100.00
18918;BME280;9591;52.742;13.650;2023-02-20T02:10:59;101452.03;;;5.58;100.00
18918;BME280;9591;52.742;13.650;2023-02-20T02:13:46;101450.25;;;5.65;100.00
18918;BME280;9591;52.742;13.650;2023-02-20T02:16:40;101451.13;;;5.85;100.00
18918;BME280;9591;52.742;13.650;2023-02-20T02:19:49;101447.66;;;5.89;100.00
18918;BME280;9591;52.742;13.650;2023-02-20T02:25:59;101435.34;;;5.85;100.00
18918;BME280;9591;52.742;13.650;2023-02-20T02:29:13;101426.59;;;5.73;100.00
18918;BME280;9591;52.742;13.650;2023-02-20T02:32:38;101421.34;;;5.79;100.00
18918;BME280;9591;52.742;13.650;2023-02-20T02:35:55;101411.69;;;5.85;100.00
18918;BME280;9591;52.742;13.650;2023-02-20T02:38:47;101406.44;;;5.91;100.00
18918;BME280;9591;52.742;13.650;2023-02-20T02:41:43;101398.56;;;5.95;100.00
18918;BME280;9591;52.742;13.650;2023-02-20T02:44:35;101410.84;;;5.89;100.00
18918;BME280;9591;52.742;13.650;2023-02-20T02:47:29;101399.44;;;5.95;100.00
18918;BME280;9591;52.742;13.650;2023-02-20T02:50:22;101395.91;;;6.01;100.00
18918;BME280;9591;52.742;13.650;2023-02-20T02:53:13;101398.53;;;6.04;100.00
18918;BME280;9591;52.742;13.650;2023-02-20T02:56:01;101392.41;;;6.02;100.00
18918;BME280;9591;52.742;13.650;2023-02-20T02:59:08;101376.66;;;5.89;100.00
18918;BME280;9591;52.742;13.650;2023-02-20T03:01:58;101375.75;;;5.86;100.00
18918;BME280;9591;52.742;13.650;2023-02-20T03:04:48;101366.06;;;6.08;100.00
18918;BME280;9591;52.742;13.650;2023-02-20T03:07:37;101363.47;;;6.06;100.00
18918;BME280;9591;52.742;13.650;2023-02-20T03:10:29;101365.13;;;6.18;100.00
18918;BME280;9591;52.742;13.650;2023-02-20T03:13:16;101366.94;;;6.08;100.00
18918;BME280;9591;52.742;13.650;2023-02-20T03:16:05;101363.47;;;6.06;100.00
18918;BME280;9591;52.742;13.650;2023-02-20T03:18:54;101348.56;;;6.04;100.00
18918;BME280;9591;52.742;13.650;2023-02-20T03:21:45;101356.34;;;6.22;100.00
18918;BME280;9591;52.742;13.650;2023-02-20T03:24:34;101345.81;;;6.25;100.00
18918;BME280;9591;52.742;13.650;2023-02-20T03:27:51;101342.31;;;6.23;100.00
18918;BME280;9591;52.742;13.650;2023-02-20T03:30:44;101330.00;;;6.31;100.00
18918;BME280;9591;52.742;13.650;2023-02-20T03:33:39;101325.66;;;6.24;100.00
18918;BME280;9591;52.742;13.650;2023-02-20T03:36:48;101299.41;;;6.10;100.00
18918;BME280;9591;52.742;13.650;2023-02-20T03:39:56;101319.50;;;6.25;100.00
18918;BME280;9591;52.742;13.650;2023-02-20T03:43:06;101311.53;;;6.39;100.00
18918;BME280;9591;52.742;13.650;2023-02-20T03:46:11;101327.31;;;6.43;100.00
18918;BME280;9591;52.742;13.650;2023-02-20T03:49:03;101333.50;;;6.32;100.00
18918;BME280;9591;52.742;13.650;2023-02-20T03:51:52;101322.00;;;6.49;100.00
18918;BME280;9591;52.742;13.650;2023-02-20T03:54:51;101318.31;;;6.75;100.00
18918;BME280;9591;52.742;13.650;2023-02-20T03:57:41;101313.22;;;6.52;100.00
18918;BME280;9591;52.742;13.650;2023-02-20T04:00:35;101312.22;;;6.71;100.00
18918;BME280;9591;52.742;13.650;2023-02-20T04:03:28;101313.13;;;6.64;100.00
18918;BME280;9591;52.742;13.650;2023-02-20T04:06:17;101289.56;;;6.44;100.00
18918;BME280;9591;52.742;13.650;2023-02-20T04:09:06;101299.09;;;6.67;100.00
18918;BME280;9591;52.742;13.650;2023-02-20T04:11:59;101278.84;;;6.72;100.00
18918;BME280;9591;52.742;13.650;2023-02-20T04:14:50;101276.09;;;6.87;100.00
18918;BME280;9591;52.742;13.650;2023-02-20T04:17:44;101280.53;;;6.83;100.00
18918;BME280;9591;52.742;13.650;2023-02-20T04:20:33;101276.97;;;6.90;100.00
18918;BME280;9591;52.742;13.650;2023-02-20T04:23:36;101263.88;;;6.78;100.00
18918;BME280;9591;52.742;13.650;2023-02-20T04:26:26;101262.91;;;6.90;100.00
18918;BME280;9591;52.742;13.650;2023-02-20T04:29:13;101253.31;;;6.83;100.00
18918;BME280;9591;52.742;13.650;2023-02-20T04:31:59;101254.94;;;6.96;100.00
18918;BME280;9591;52.742;13.650;2023-02-20T04:34:52;101259.34;;;6.94;100.00
18918;BME280;9591;52.742;13.650;2023-02-20T04:37:38;101267.13;;;7.06;100.00
18918;BME280;9591;52.742;13.650;2023-02-20T04:40:26;101240.78;;;7.08;100.00
18918;BME280;9591;52.742;13.650;2023-02-20T04:43:13;101246.03;;;7.08;100.00
18918;BME280;9591;52.742;13.650;2023-02-20T04:46:00;101234.69;;;7.01;100.00
18918;BME280;9591;52.742;13.650;2023-02-20T04:48:48;101242.75;;;6.86;100.00
18918;BME280;9591;52.742;13.650;2023-02-20T04:51:36;101226.63;;;7.16;100.00
18918;BME280;9591;52.742;13.650;2023-02-20T04:54:23;101234.75;;;6.94;100.00
18918;BME280;9591;52.742;13.650;2023-02-20T04:57:10;101221.41;;;7.13;100.00
18918;BME280;9591;52.742;13.650;2023-02-20T04:59:57;101212.47;;;7.27;100.00
18918;BME280;9591;52.742;13.650;2023-02-20T05:02:44;101204.66;;;7.19;100.00
18918;BME280;9591;52.742;13.650;2023-02-20T05:05:30;101205.44;;;7.29;100.00
18918;BME280;9591;52.742;13.650;2023-02-20T05:08:18;101202.72;;;7.35;100.00
18918;BME280;9591;52.742;13.650;2023-02-20T05:11:05;101186.09;;;7.31;100.00
18918;BME280;9591;52.742;13.650;2023-02-20T05:13:52;101192.28;;;7.27;100.00
18918;BME280;9591;52.742;13.650;2023-02-20T05:16:40;101177.47;;;7.15;100.00
18918;BME280;9591;52.742;13.650;2023-02-20T05:19:27;101189.50;;;7.38;100.00
18918;BME280;9591;52.742;13.650;2023-02-20T05:22:13;101185.16;;;7.35;100.00
18918;BME280;9591;52.742;13.650;2023-02-20T05:25:07;101191.34;;;7.33;100.00
18918;BME280;9591;52.742;13.650;2023-02-20T05:27:54;101190.69;;;7.12;100.00
18918;BME280;9591;52.742;13.650;2023-02-20T05:30:41;101180.94;;;7.20;100.00
18918;BME280;9591;52.742;13.650;2023-02-20T05:33:27;101172.88;;;7.33;100.00
18918;BME280;9591;52.742;13.650;2023-02-20T05:36:15;101171.88;;;7.43;100.00
18918;BME280;9591;52.742;13.650;2023-02-20T05:39:02;101168.50;;;7.32;100.00
18918;BME280;9591;52.742;13.650;2023-02-20T05:41:50;101159.75;;;7.30;100.00
18918;BME280;9591;52.742;13.650;2023-02-20T05:44:37;101160.75;;;7.18;100.00
18918;BME280;9591;52.742;13.650;2023-02-20T05:47:24;101149.06;;;7.42;100.00
18918;BME280;9591;52.742;13.650;2023-02-20T05:50:10;101148.31;;;7.31;100.00
18918;BME280;9591;52.742;13.650;2023-02-20T05:52:57;101131.44;;;7.45;100.00
18918;BME280;9591;52.742;13.650;2023-02-20T05:55:44;101139.25;;;7.53;100.00
18918;BME280;9591;52.742;13.650;2023-02-20T05:58:32;101110.41;;;7.41;100.00
18918;BME280;9591;52.742;13.650;2023-02-20T06:01:21;101119.13;;;7.46;100.00
18918;BME280;9591;52.742;13.650;2023-02-20T06:04:09;101104.13;;;7.52;100.00
18918;BME280;9591;52.742;13.650;2023-02-20T06:06:56;101101.50;;;7.51;100.00
18918;BME280;9591;52.742;13.650;2023-02-20T06:09:43;101110.44;;;7.39;100.00
18918;BME280;9591;52.742;13.650;2023-02-20T06:12:30;101100.44;;;7.64;100.00
18918;BME280;9591;52.742;13.650;2023-02-20T06:15:18;101093.56;;;7.54;100.00
18918;BME280;9591;52.742;13.650;2023-02-20T06:18:05;101089.88;;;7.64;100.00
18918;BME280;9591;52.742;13.650;2023-02-20T06:20:52;101087.31;;;7.61;100.00
18918;BME280;9591;52.742;13.650;2023-02-20T06:23:39;101083.84;;;7.56;100.00
18918;BME280;9591;52.742;13.650;2023-02-20T06:26:25;101089.28;;;7.44;100.00
18918;BME280;9591;52.742;13.650;2023-02-20T06:29:13;101088.03;;;7.71;100.00
18918;BME280;9591;52.742;13.650;2023-02-20T06:32:01;101075.31;;;7.39;100.00
18918;BME280;9591;52.742;13.650;2023-02-20T06:34:48;101070.59;;;7.61;100.00
18918;BME280;9591;52.742;13.650;2023-02-20T06:37:35;101069.66;;;7.66;100.00
18918;BME280;9591;52.742;13.650;2023-02-20T06:40:22;101081.28;;;7.51;100.00
18918;BME280;9591;52.742;13.650;2023-02-20T06:43:09;101074.06;;;7.64;100.00
18918;BME280;9591;52.742;13.650;2023-02-20T06:45:56;101068.72;;;7.69;100.00
18918;BME280;9591;52.742;13.650;2023-02-20T06:48:45;101057.25;;;7.73;100.00
18918;BME280;9591;52.742;13.650;2023-02-20T06:51:33;101075.94;;;7.57;100.00
18918;BME280;9591;52.742;13.650;2023-02-20T06:54:21;101085.47;;;7.66;100.00
18918;BME280;9591;52.742;13.650;2023-02-20T06:57:07;101073.91;;;7.75;100.00
18918;BME280;9591;52.742;13.650;2023-02-20T06:59:54;101060.25;;;7.48;100.00
18918;BME280;9591;52.742;13.650;2023-02-20T07:02:41;101049.06;;;7.88;100.00
18918;BME280;9591;52.742;13.650;2023-02-20T07:05:29;101051.78;;;7.82;100.00
18918;BME280;9591;52.742;13.650;2023-02-20T07:08:16;101036.75;;;7.88;100.00
18918;BME280;9591;52.742;13.650;2023-02-20T07:11:03;101033.47;;;7.76;100.00
18918;BME280;9591;52.742;13.650;2023-02-20T07:13:50;101036.00;;;7.80;100.00
18918;BME280;9591;52.742;13.650;2023-02-20T07:16:37;101040.53;;;7.74;100.00
18918;BME280;9591;52.742;13.650;2023-02-20T07:19:24;101050.00;;;7.84;100.00
18918;BME280;9591;52.742;13.650;2023-02-20T07:22:12;101045.50;;;7.90;100.00
18918;BME280;9591;52.742;13.650;2023-02-20T07:24:58;101034.00;;;7.96;100.00
18918;BME280;9591;52.742;13.650;2023-02-20T07:27:45;101052.41;;;7.99;100.00
18918;BME280;9591;52.742;13.650;2023-02-20T07:30:32;101056.84;;;7.96;100.00
18918;BME280;9591;52.742;13.650;2023-02-20T07:33:19;101036.59;;;7.98;100.00
18918;BME280;9591;52.742;13.650;2023-02-20T07:36:07;101022.53;;;7.97;100.00
18918;BME280;9591;52.742;13.650;2023-02-20T07:38:56;101018.78;;;8.12;100.00
18918;BME280;9591;52.742;13.650;2023-02-20T07:41:43;101016.06;;;8.16;100.00
18918;BME280;9591;52.742;13.650;2023-02-20T07:44:52;101002.03;;;8.13;100.00
18918;BME280;9591;52.742;13.650;2023-02-20T07:47:38;100995.94;;;8.11;100.00
18918;BME280;9591;52.742;13.650;2023-02-20T07:50:25;101003.78;;;8.14;100.00
18918;BME280;9591;52.742;13.650;2023-02-20T07:53:13;101005.38;;;8.24;100.00
18918;BME280;9591;52.742;13.650;2023-02-20T07:56:03;100984.25;;;8.24;100.00
18918;BME280;9591;52.742;13.650;2023-02-20T07:58:50;100973.50;;;8.36;100.00
18918;BME280;9591;52.742;13.650;2023-02-20T08:01:37;100963.75;;;8.40;100.00
18918;BME280;9591;52.742;13.650;2023-02-20T08:04:23;100960.00;;;8.51;100.00
18918;BME280;9591;52.742;13.650;2023-02-20T08:07:11;100943.06;;;8.62;100.00
18918;BME280;9591;52.742;13.650;2023-02-20T08:09:58;100955.44;;;8.60;100.00
18918;BME280;9591;52.742;13.650;2023-02-20T08:12:47;100923.41;;;8.75;100.00
18918;BME280;9591;52.742;13.650;2023-02-20T08:15:35;100918.13;;;8.33;100.00
18918;BME280;9591;52.742;13.650;2023-02-20T08:18:21;100904.84;;;8.78;100.00
18918;BME280;9591;52.742;13.650;2023-02-20T08:21:08;100897.66;;;8.46;100.00
18918;BME280;9591;52.742;13.650;2023-02-20T08:23:55;100890.63;;;8.83;100.00
18918;BME280;9591;52.742;13.650;2023-02-20T08:26:42;100881.94;;;8.78;100.00
18918;BME280;9591;52.742;13.650;2023-02-20T08:29:31;100884.50;;;8.83;100.00
18918;BME280;9591;52.742;13.650;2023-02-20T08:32:18;100877.56;;;8.77;100.00
18918;BME280;9591;52.742;13.650;2023-02-20T08:35:05;100862.59;;;8.78;100.00
18918;BME280;9591;52.742;13.650;2023-02-20T08:37:52;100866.63;;;8.94;100.00
18918;BME280;9591;52.742;13.650;2023-02-20T08:40:39;100865.00;;;8.88;100.00
18918;BME280;9591;52.742;13.650;2023-02-20T08:43:25;100866.75;;;8.88;100.00
18918;BME280;9591;52.742;13.650;2023-02-20T08:46:14;100863.44;;;8.80;100.00
18918;BME280;9591;52.742;13.650;2023-02-20T08:49:01;100853.63;;;8.85;100.00
18918;BME280;9591;52.742;13.650;2023-02-20T08:51:52;100840.78;;;8.70;100.00
18918;BME280;9591;52.742;13.650;2023-02-20T08:54:43;100846.25;;;8.99;100.00
18918;BME280;9591;52.742;13.650;2023-02-20T08:57:34;100834.22;;;8.86;100.00
18918;BME280;9591;52.742;13.650;2023-02-20T09:00:21;100829.66;;;8.94;100.00
18918;BME280;9591;52.742;13.650;2023-02-20T09:03:09;100813.66;;;9.00;100.00
18918;BME280;9591;52.742;13.650;2023-02-20T09:05:56;100820.75;;;8.98;100.00
18918;BME280;9591;52.742;13.650;2023-02-20T09:08:43;100799.94;;;9.20;100.00
18918;BME280;9591;52.742;13.650;2023-02-20T09:11:30;100794.81;;;9.14;100.00
18918;BME280;9591;52.742;13.650;2023-02-20T09:14:16;100782.81;;;9.35;100.00
18918;BME280;9591;52.742;13.650;2023-02-20T09:17:04;100784.19;;;9.49;100.00
18918;BME280;9591;52.742;13.650;2023-02-20T09:19:52;100785.25;;;9.42;100.00
18918;BME280;9591;52.742;13.650;2023-02-20T09:22:39;100783.25;;;9.52;100.00
18918;BME280;9591;52.742;13.650;2023-02-20T09:25:25;100779.78;;;9.50;100.00
18918;BME280;9591;52.742;13.650;2023-02-20T09:28:12;100781.97;;;9.65;100.00
18918;BME280;9591;52.742;13.650;2023-02-20T09:30:59;100764.19;;;9.70;100.00
18918;BME280;9591;52.742;13.650;2023-02-20T09:33:46;100773.00;;;9.71;100.00
18918;BME280;9591;52.742;13.650;2023-02-20T09:36:37;100778.47;;;9.96;100.00
18918;BME280;9591;52.742;13.650;2023-02-20T09:39:24;100777.25;;;10.07;100.00
18918;BME280;9591;52.742;13.650;2023-02-20T09:42:22;100773.22;;;10.25;100.00
18918;BME280;9591;52.742;13.650;2023-02-20T09:45:14;100757.34;;;10.25;99.21
18918;BME280;9591;52.742;13.650;2023-02-20T09:48:11;100752.47;;;10.10;100.00
18918;BME280;9591;52.742;13.650;2023-02-20T09:51:04;100750.03;;;10.33;98.06
18918;BME280;9591;52.742;13.650;2023-02-20T09:54:01;100751.53;;;10.40;99.38
18918;BME280;9591;52.742;13.650;2023-02-20T09:56:51;100745.56;;;10.62;97.71
18918;BME280;9591;52.742;13.650;2023-02-20T09:59:41;100741.69;;;10.45;97.46
18918;BME280;9591;52.742;13.650;2023-02-20T10:02:32;100738.09;;;10.74;96.58
18918;BME280;9591;52.742;13.650;2023-02-20T10:05:22;100735.91;;;10.61;95.94
18918;BME280;9591;52.742;13.650;2023-02-20T10:08:15;100733.06;;;10.67;95.93
18918;BME280;9591;52.742;13.650;2023-02-20T10:11:05;100722.28;;;10.45;97.03
18918;BME280;9591;52.742;13.650;2023-02-20T10:14:06;100708.03;;;10.49;97.61
18918;BME280;9591;52.742;13.650;2023-02-20T10:17:02;100697.81;;;10.38;96.38
18918;BME280;9591;52.742;13.650;2023-02-20T10:19:55;100671.28;;;10.40;96.42
18918;BME280;9591;52.742;13.650;2023-02-20T10:22:52;100699.34;;;10.72;96.05
18918;BME280;9591;52.742;13.650;2023-02-20T10:25:43;100697.81;;;10.65;97.34
18918;BME280;9591;52.742;13.650;2023-02-20T10:28:33;100700.03;;;10.77;96.09
18918;BME280;9591;52.742;13.650;2023-02-20T10:31:28;100695.84;;;10.96;95.77
18918;BME280;9591;52.742;13.650;2023-02-20T10:34:22;100689.00;;;10.91;96.63
18918;BME280;9591;52.742;13.650;2023-02-20T10:37:13;100678.63;;;11.09;95.77
18918;BME280;9591;52.742;13.650;2023-02-20T10:40:05;100679.38;;;11.13;95.77
18918;BME280;9591;52.742;13.650;2023-02-20T10:42:58;100679.81;;;11.01;97.15
18918;BME280;9591;52.742;13.650;2023-02-20T10:45:56;100665.91;;;11.19;96.81
18918;BME280;9591;52.742;13.650;2023-02-20T10:48:44;100671.69;;;11.54;95.20
18918;BME280;9591;52.742;13.650;2023-02-20T10:51:34;100676.59;;;11.64;93.48
18918;BME280;9591;52.742;13.650;2023-02-20T10:54:28;100668.75;;;11.61;93.39
18918;BME280;9591;52.742;13.650;2023-02-20T10:57:19;100668.91;;;11.57;94.33
18918;BME280;9591;52.742;13.650;2023-02-20T11:00:12;100665.16;;;11.39;95.85
18918;BME280;9591;52.742;13.650;2023-02-20T11:03:05;100667.03;;;11.60;95.73
18918;BME280;9591;52.742;13.650;2023-02-20T11:05:55;100665.97;;;11.64;95.68
18918;BME280;9591;52.742;13.650;2023-02-20T11:08:43;100670.03;;;11.74;94.63
18918;BME280;9591;52.742;13.650;2023-02-20T11:11:32;100690.31;;;11.75;95.24
18918;BME280;9591;52.742;13.650;2023-02-20T11:14:23;100649.38;;;11.59;95.43
18918;BME280;9591;52.742;13.650;2023-02-20T11:17:27;100630.22;;;11.28;96.16
18918;BME280;9591;52.742;13.650;2023-02-20T11:20:42;100661.72;;;11.60;96.82
18918;BME280;9591;52.742;13.650;2023-02-20T11:23:37;100672.78;;;11.71;96.11
18918;BME280;9591;52.742;13.650;2023-02-20T11:26:29;100655.16;;;11.70;96.48
18918;BME280;9591;52.742;13.650;2023-02-20T11:29:18;100647.25;;;11.92;96.29
18918;BME280;9591;52.742;13.650;2023-02-20T11:32:32;100651.00;;;11.87;96.52
18918;BME280;9591;52.742;13.650;2023-02-20T11:35:24;100654.75;;;12.04;95.68
18918;BME280;9591;52.742;13.650;2023-02-20T11:38:29;100649.97;;;11.91;96.01
18918;BME280;9591;52.742;13.650;2023-02-20T11:41:27;100646.97;;;12.00;96.13
18918;BME280;9591;52.742;13.650;2023-02-20T11:44:21;100648.56;;;12.04;96.43
18918;BME280;9591;52.742;13.650;2023-02-20T11:47:23;100634.84;;;11.69;98.87
18918;BME280;9591;52.742;13.650;2023-02-20T11:50:14;100624.16;;;11.71;99.07
18918;BME280;9591;52.742;13.650;2023-02-20T11:53:05;100639.84;;;11.78;100.00
18918;BME280;9591;52.742;13.650;2023-02-20T11:56:08;100642.63;;;11.74;100.00
18918;BME280;9591;52.742;13.650;2023-02-20T11:59:16;100633.59;;;11.79;100.00
18918;BME280;9591;52.742;13.650;2023-02-20T12:02:20;100649.16;;;11.65;100.00
18918;BME280;9591;52.742;13.650;2023-02-20T12:05:10;100639.22;;;11.70;100.00
18918;BME280;9591;52.742;13.650;2023-02-20T12:07:58;100657.97;;;11.66;100.00
18918;BME280;9591;52.742;13.650;2023-02-20T12:10:46;100634.31;;;11.60;100.00
18918;BME280;9591;52.742;13.650;2023-02-20T12:13:38;100601.38;;;11.20;100.00
18918;BME280;9591;52.742;13.650;2023-02-20T12:16:36;100627.63;;;11.49;100.00
18918;BME280;9591;52.742;13.650;2023-02-20T12:19:31;100632.38;;;11.41;100.00
18918;BME280;9591;52.742;13.650;2023-02-20T12:22:32;100634.84;;;11.46;100.00
18918;BME280;9591;52.742;13.650;2023-02-20T12:25:23;100624.75;;;11.32;100.00
18918;BME280;9591;52.742;13.650;2023-02-20T12:28:18;100620.78;;;11.44;100.00
18918;BME280;9591;52.742;13.650;2023-02-20T12:31:24;100627.16;;;11.62;100.00
18918;BME280;9591;52.742;13.650;2023-02-20T12:34:29;100624.41;;;11.65;100.00
18918;BME280;9591;52.742;13.650;2023-02-20T12:37:29;100614.66;;;11.65;100.00
18918;BME280;9591;52.742;13.650;2023-02-20T12:40:30;100639.47;;;11.64;100.00
18918;BME280;9591;52.742;13.650;2023-02-20T12:43:25;100639.50;;;11.63;100.00
18918;BME280;9591;52.742;13.650;2023-02-20T12:46:21;100627.91;;;11.42;100.00
18918;BME280;9591;52.742;13.650;2023-02-20T12:49:20;100616.16;;;11.49;100.00
18918;BME280;9591;52.742;13.650;2023-02-20T12:52:25;100614.44;;;11.71;100.00
18918;BME280;9591;52.742;13.650;2023-02-20T12:55:22;100613.38;;;11.75;100.00
18918;BME280;9591;52.742;13.650;2023-02-20T12:58:18;100625.38;;;11.62;100.00
18918;BME280;9591;52.742;13.650;2023-02-20T13:01:10;100604.69;;;11.72;100.00
18918;BME280;9591;52.742;13.650;2023-02-20T13:04:02;100615.16;;;11.75;100.00
18918;BME280;9591;52.742;13.650;2023-02-20T13:06:55;100604.97;;;11.64;100.00
18918;BME280;9591;52.742;13.650;2023-02-20T13:09:56;100606.63;;;11.67;100.00
18918;BME280;9591;52.742;13.650;2023-02-20T13:12:47;100605.91;;;11.63;100.00
18918;BME280;9591;52.742;13.650;2023-02-20T13:15:38;100605.50;;;11.50;100.00
18918;BME280;9591;52.742;13.650;2023-02-20T13:18:33;100605.84;;;11.41;100.00
18918;BME280;9591;52.742;13.650;2023-02-20T13:21:27;100605.56;;;11.26;100.00
18918;BME280;9591;52.742;13.650;2023-02-20T13:24:30;100562.88;;;10.85;100.00
18918;BME280;9591;52.742;13.650;2023-02-20T13:27:28;100606.31;;;11.06;100.00
18918;BME280;9591;52.742;13.650;2023-02-20T13:30:19;100622.63;;;11.19;100.00
18918;BME280;9591;52.742;13.650;2023-02-20T13:33:11;100612.66;;;11.25;100.00
18918;BME280;9591;52.742;13.650;2023-02-20T13:35:58;100619.72;;;11.01;100.00
18918;BME280;9591;52.742;13.650;2023-02-20T13:42:25;100623.59;;;10.91;100.00
18918;BME280;9591;52.742;13.650;2023-02-20T13:45:36;100615.72;;;10.90;100.00
18918;BME280;9591;52.742;13.650;2023-02-20T13:48:38;100574.25;;;10.64;100.00
18918;BME280;9591;52.742;13.650;2023-02-20T13:51:34;100609.22;;;10.98;100.00
18918;BME280;9591;52.742;13.650;2023-02-20T13:54:24;100625.59;;;10.84;100.00
18918;BME280;9591;52.742;13.650;2023-02-20T13:57:16;100605.53;;;10.77;100.00
18918;BME280;9591;52.742;13.650;2023-02-20T14:00:15;100622.03;;;10.86;100.00
18918;BME280;9591;52.742;13.650;2023-02-20T14:03:10;100624.41;;;10.93;100.00
18918;BME280;9591;52.742;13.650;2023-02-20T14:06:07;100626.41;;;10.87;100.00
18918;BME280;9591;52.742;13.650;2023-02-20T14:09:06;100631.31;;;10.72;100.00
18918;BME280;9591;52.742;13.650;2023-02-20T14:12:02;100623.84;;;10.59;100.00
18918;BME280;9591;52.742;13.650;2023-02-20T14:14:51;100620.72;;;10.72;100.00
18918;BME280;9591;52.742;13.650;2023-02-20T14:17:40;100633.16;;;10.70;100.00
18918;BME280;9591;52.742;13.650;2023-02-20T14:20:33;100633.38;;;10.64;100.00
18918;BME280;9591;52.742;13.650;2023-02-20T14:23:24;100634.13;;;10.68;100.00
18918;BME280;9591;52.742;13.650;2023-02-20T14:26:18;100617.47;;;10.64;100.00
18918;BME280;9591;52.742;13.650;2023-02-20T14:29:18;100621.03;;;10.63;100.00
18918;BME280;9591;52.742;13.650;2023-02-20T14:32:11;100623.38;;;10.72;100.00
18918;BME280;9591;52.742;13.650;2023-02-20T14:35:04;100605.53;;;10.77;100.00
18918;BME280;9591;52.742;13.650;2023-02-20T14:38:00;100603.75;;;10.78;100.00
18918;BME280;9591;52.742;13.650;2023-02-20T14:40:51;100613.56;;;11.01;100.00
18918;BME280;9591;52.742;13.650;2023-02-20T14:43:38;100605.81;;;10.95;100.00
18918;BME280;9591;52.742;13.650;2023-02-20T14:46:27;100595.88;;;11.01;100.00
18918;BME280;9591;52.742;13.650;2023-02-20T14:49:23;100608.03;;;11.07;100.00
18918;BME280;9591;52.742;13.650;2023-02-20T14:52:14;100613.34;;;11.07;100.00
18918;BME280;9591;52.742;13.650;2023-02-20T14:55:03;100612.34;;;11.33;100.00
18918;BME280;9591;52.742;13.650;2023-02-20T14:57:51;100602.50;;;11.36;100.00
18918;BME280;9591;52.742;13.650;2023-02-20T15:00:39;100605.31;;;11.08;100.00